sensor_id;sensor_type;location;lat;lon;timestamp;temperature;humidity
47514;DHT22;33951;51.988;5.910;2022-11-27T00:01:49;6.30;99.90
47514;DHT22;33951;51.988;5.910;2022-11-27T00:04:18;6.30;99.90
47514;DHT22;33951;51.988;5.910;2022-11-27T00:06:43;6.30;99.90
47514;DHT22;33951;51.988;5.910;2022-11-27T00:09:12;6.40;99.90
47514;DHT22;33951;51.988;5.910;2022-11-27T00:11:42;6.30;99.90
47514;DHT22;33951;51.988;5.910;2022-11-27T00:14:13;6.30;99.90
47514;DHT22;33951;51.988;5.910;2022-11-27T00:16:40;6.30;99.90
47514;DHT22;33951;51.988;5.910;2022-11-27T00:19:12;6.30;99.90
47514;DHT22;33951;51.988;5.910;2022-11-27T00:21:40;6.40;99.90
47514;DHT22;33951;51.988;5.910;2022-11-27T00:24:09;6.40;99.90
47514;DHT22;33951;51.988;5.910;2022-11-27T00:26:46;6.40;99.90
47514;DHT22;33951;51.988;5.910;2022-11-27T00:29:14;6.30;99.90
47514;DHT22;33951;51.988;5.910;2022-11-27T00:31:42;6.30;99.90
47514;DHT22;33951;51.988;5.910;2022-11-27T00:34:10;6.30;99.90
47514;DHT22;33951;51.988;5.910;2022-11-27T00:36:39;6.40;99.90
47514;DHT22;33951;51.988;5.910;2022-11-27T00:39:05;6.40;99.90
47514;DHT22;33951;51.988;5.910;2022-11-27T00:41:35;6.30;99.90
47514;DHT22;33951;51.988;5.910;2022-11-27T00:44:14;6.40;99.90
47514;DHT22;33951;51.988;5.910;2022-11-27T00:46:40;6.40;99.90
47514;DHT22;33951;51.988;5.910;2022-11-27T00:49:07;6.30;99.90
47514;DHT22;33951;51.988;5.910;2022-11-27T00:51:42;6.30;99.90
47514;DHT22;33951;51.988;5.910;2022-11-27T00:54:15;6.40;99.90
47514;DHT22;33951;51.988;5.910;2022-11-27T00:56:43;6.40;99.90
47514;DHT22;33951;51.988;5.910;2022-11-27T00:59:12;6.50;99.90
47514;DHT22;33951;51.988;5.910;2022-11-27T06:02:02;6.70;99.90
47514;DHT22;33951;51.988;5.910;2022-11-27T06:04:34;6.70;99.90
47514;DHT22;33951;51.988;5.910;2022-11-27T06:07:01;6.60;99.90
47514;DHT22;33951;51.988;5.910;2022-11-27T06:09:29;6.50;99.90
47514;DHT22;33951;51.988;5.910;2022-11-27T06:11:55;6.40;99.90
47514;DHT22;33951;51.988;5.910;2022-11-27T06:14:52;6.40;99.90
47514;DHT22;33951;51.988;5.910;2022-11-27T06:31:51;6.70;99.90
47514;DHT22;33951;51.988;5.910;2022-11-27T06:38:37;6.80;99.90
47514;DHT22;33951;51.988;5.910;2022-11-27T06:42:08;6.80;99.90
47514;DHT22;33951;51.988;5.910;2022-11-27T06:45:21;6.80;99.90
47514;DHT22;33951;51.988;5.910;2022-11-27T08:08:27;6.80;99.90
47514;DHT22;33951;51.988;5.910;2022-11-27T08:15:14;6.80;99.90
47514;DHT22;33951;51.988;5.910;2022-11-27T08:18:07;6.70;99.90
47514;DHT22;33951;51.988;5.910;2022-11-27T08:20:39;6.60;99.90
47514;DHT22;33951;51.988;5.910;2022-11-27T08:23:04;6.70;99.90
47514;DHT22;33951;51.988;5.910;2022-11-27T08:25:30;6.60;99.90
47514;DHT22;33951;51.988;5.910;2022-11-27T08:27:56;6.60;99.90
47514;DHT22;33951;51.988;5.910;2022-11-27T08:30:22;6.50;99.90
47514;DHT22;33951;51.988;5.910;2022-11-27T08:32:48;6.60;99.90
47514;DHT22;33951;51.988;5.910;2022-11-27T08:35:13;6.60;99.90
47514;DHT22;33951;51.988;5.910;2022-11-27T08:37:39;6.70;99.90
47514;DHT22;33951;51.988;5.910;2022-11-27T08:40:05;6.70;99.90
47514;DHT22;33951;51.988;5.910;2022-11-27T08:42:31;6.70;99.90
47514;DHT22;33951;51.988;5.910;2022-11-27T08:44:56;6.70;99.90
47514;DHT22;33951;51.988;5.910;2022-11-27T08:47:24;6.70;99.90
47514;DHT22;33951;51.988;5.910;2022-11-27T08:49:50;6.70;99.90
47514;DHT22;33951;51.988;5.910;2022-11-27T08:52:16;6.80;99.90
47514;DHT22;33951;51.988;5.910;2022-11-27T08:54:41;6.70;99.90
47514;DHT22;33951;51.988;5.910;2022-11-27T08:57:07;6.70;99.90
47514;DHT22;33951;51.988;5.910;2022-11-27T08:59:33;6.70;99.90
47514;DHT22;33951;51.988;5.910;2022-11-27T09:01:58;6.60;99.90
47514;DHT22;33951;51.988;5.910;2022-11-27T09:04:24;6.70;99.90
47514;DHT22;33951;51.988;5.910;2022-11-27T09:06:49;6.70;99.90
47514;DHT22;33951;51.988;5.910;2022-11-27T09:09:15;6.80;99.90
47514;DHT22;33951;51.988;5.910;2022-11-27T09:11:41;6.80;99.90
47514;DHT22;33951;51.988;5.910;2022-11-27T09:14:07;6.80;99.90
47514;DHT22;33951;51.988;5.910;2022-11-27T09:16:34;6.80;99.90
47514;DHT22;33951;51.988;5.910;2022-11-27T09:18:59;6.80;99.90
47514;DHT22;33951;51.988;5.910;2022-11-27T09:21:27;6.80;99.90
47514;DHT22;33951;51.988;5.910;2022-11-27T09:23:58;6.70;99.90
47514;DHT22;33951;51.988;5.910;2022-11-27T09:26:25;6.70;99.90
47514;DHT22;33951;51.988;5.910;2022-11-27T09:28:52;6.90;99.90
47514;DHT22;33951;51.988;5.910;2022-11-27T09:31:18;7.00;99.90
47514;DHT22;33951;51.988;5.910;2022-11-27T09:33:44;6.90;99.90
47514;DHT22;33951;51.988;5.910;2022-11-27T09:36:21;6.80;99.90
47514;DHT22;33951;51.988;5.910;2022-11-27T09:38:47;6.80;99.90
47514;DHT22;33951;51.988;5.910;2022-11-27T09:49:48;6.90;99.90
47514;DHT22;33951;51.988;5.910;2022-11-27T09:52:45;6.90;99.90
47514;DHT22;33951;51.988;5.910;2022-11-27T09:57:41;7.10;99.90
47514;DHT22;33951;51.988;5.910;2022-11-27T10:00:14;7.20;99.90
47514;DHT22;33951;51.988;5.910;2022-11-27T10:02:42;7.20;99.90
47514;DHT22;33951;51.988;5.910;2022-11-27T10:05:24;7.30;99.90
47514;DHT22;33951;51.988;5.910;2022-11-27T10:08:08;7.20;99.90
47514;DHT22;33951;51.988;5.910;2022-11-27T10:16:24;7.20;99.90
47514;DHT22;33951;51.988;5.910;2022-11-27T10:21:50;7.50;99.90
47514;DHT22;33951;51.988;5.910;2022-11-27T10:24:21;7.50;99.90
47514;DHT22;33951;51.988;5.910;2022-11-27T10:26:49;7.40;99.90
47514;DHT22;33951;51.988;5.910;2022-11-27T10:29:27;7.30;99.90
47514;DHT22;33951;51.988;5.910;2022-11-27T10:31:58;7.30;99.90
47514;DHT22;33951;51.988;5.910;2022-11-27T10:34:36;7.40;99.90
47514;DHT22;33951;51.988;5.910;2022-11-27T10:37:11;7.40;99.90
47514;DHT22;33951;51.988;5.910;2022-11-27T10:39:44;7.40;99.90
47514;DHT22;33951;51.988;5.910;2022-11-27T10:44:58;7.50;99.90
47514;DHT22;33951;51.988;5.910;2022-11-27T10:47:26;7.50;99.90
47514;DHT22;33951;51.988;5.910;2022-11-27T10:49:52;7.60;99.90
47514;DHT22;33951;51.988;5.910;2022-11-27T10:52:18;7.50;99.90
47514;DHT22;33951;51.988;5.910;2022-11-27T10:54:48;7.60;99.90
47514;DHT22;33951;51.988;5.910;2022-11-27T10:59:52;7.60;99.90
47514;DHT22;33951;51.988;5.910;2022-11-27T11:02:26;7.60;99.90
47514;DHT22;33951;51.988;5.910;2022-11-27T11:04:51;7.60;99.90
47514;DHT22;33951;51.988;5.910;2022-11-27T11:07:27;7.70;99.90
47514;DHT22;33951;51.988;5.910;2022-11-27T11:09:53;7.70;99.90
47514;DHT22;33951;51.988;5.910;2022-11-27T11:12:21;7.60;99.90
47514;DHT22;33951;51.988;5.910;2022-11-27T11:14:55;7.60;99.90
47514;DHT22;33951;51.988;5.910;2022-11-27T11:17:29;7.60;99.90
47514;DHT22;33951;51.988;5.910;2022-11-27T11:19:55;7.80;99.90
47514;DHT22;33951;51.988;5.910;2022-11-27T11:22:20;7.80;99.90
47514;DHT22;33951;51.988;5.910;2022-11-27T11:24:51;7.90;99.90
47514;DHT22;33951;51.988;5.910;2022-11-27T11:27:25;7.90;99.90
47514;DHT22;33951;51.988;5.910;2022-11-27T11:29:59;8.00;99.90
47514;DHT22;33951;51.988;5.910;2022-11-27T11:32:26;8.10;99.90
47514;DHT22;33951;51.988;5.910;2022-11-27T11:34:55;8.10;99.90
47514;DHT22;33951;51.988;5.910;2022-11-27T11:42:22;7.90;99.90
47514;DHT22;33951;51.988;5.910;2022-11-27T11:44:54;7.90;99.90
47514;DHT22;33951;51.988;5.910;2022-11-27T11:47:24;7.80;99.90
47514;DHT22;33951;51.988;5.910;2022-11-27T11:49:51;7.80;99.90
47514;DHT22;33951;51.988;5.910;2022-11-27T11:57:48;7.80;99.90
47514;DHT22;33951;51.988;5.910;2022-11-27T12:00:21;7.80;99.90
47514;DHT22;33951;51.988;5.910;2022-11-27T12:11:43;7.70;99.90
47514;DHT22;33951;51.988;5.910;2022-11-27T12:25:35;7.70;99.90
47514;DHT22;33951;51.988;5.910;2022-11-27T12:31:50;8.00;99.90
47514;DHT22;33951;51.988;5.910;2022-11-27T12:45:16;8.20;99.90
47514;DHT22;33951;51.988;5.910;2022-11-27T12:47:58;8.00;99.90
47514;DHT22;33951;51.988;5.910;2022-11-27T12:50:39;8.00;99.90
47514;DHT22;33951;51.988;5.910;2022-11-27T12:53:18;8.20;99.90
47514;DHT22;33951;51.988;5.910;2022-11-27T12:56:05;8.20;99.90
47514;DHT22;33951;51.988;5.910;2022-11-27T12:58:42;8.10;99.90
47514;DHT22;33951;51.988;5.910;2022-11-27T13:01:16;8.00;99.90
47514;DHT22;33951;51.988;5.910;2022-11-27T13:03:55;8.10;99.90
47514;DHT22;33951;51.988;5.910;2022-11-27T13:06:25;8.10;99.90
47514;DHT22;33951;51.988;5.910;2022-11-27T13:08:58;8.20;99.90
47514;DHT22;33951;51.988;5.910;2022-11-27T13:11:38;8.20;99.90
47514;DHT22;33951;51.988;5.910;2022-11-27T13:14:21;8.10;99.90
47514;DHT22;33951;51.988;5.910;2022-11-27T13:21:54;7.90;99.90
47514;DHT22;33951;51.988;5.910;2022-11-27T13:24:27;7.90;99.90
47514;DHT22;33951;51.988;5.910;2022-11-27T13:32:34;8.20;99.90
47514;DHT22;33951;51.988;5.910;2022-11-27T13:35:06;8.30;99.90
47514;DHT22;33951;51.988;5.910;2022-11-27T13:37:40;8.30;99.90
47514;DHT22;33951;51.988;5.910;2022-11-27T13:40:19;8.30;99.90
47514;DHT22;33951;51.988;5.910;2022-11-27T13:42:49;8.30;99.90
47514;DHT22;33951;51.988;5.910;2022-11-27T13:45:23;8.20;99.90
47514;DHT22;33951;51.988;5.910;2022-11-27T13:47:53;8.30;99.90
47514;DHT22;33951;51.988;5.910;2022-11-27T13:50:26;8.40;99.90
47514;DHT22;33951;51.988;5.910;2022-11-27T13:52:57;8.40;99.90
47514;DHT22;33951;51.988;5.910;2022-11-27T13:55:25;8.40;99.90
47514;DHT22;33951;51.988;5.910;2022-11-27T13:57:58;8.50;99.90
47514;DHT22;33951;51.988;5.910;2022-11-27T14:00:45;8.50;99.90
47514;DHT22;33951;51.988;5.910;2022-11-27T14:03:25;8.40;99.90
47514;DHT22;33951;51.988;5.910;2022-11-27T14:05:57;8.40;99.90
47514;DHT22;33951;51.988;5.910;2022-11-27T14:08:33;8.40;99.90
47514;DHT22;33951;51.988;5.910;2022-11-27T14:11:08;8.40;99.90
47514;DHT22;33951;51.988;5.910;2022-11-27T14:13:48;8.50;99.90
47514;DHT22;33951;51.988;5.910;2022-11-27T14:16:24;8.60;99.90
47514;DHT22;33951;51.988;5.910;2022-11-27T14:18:54;8.70;99.90
47514;DHT22;33951;51.988;5.910;2022-11-27T14:26:58;8.70;99.90
47514;DHT22;33951;51.988;5.910;2022-11-27T14:37:27;8.50;99.90
47514;DHT22;33951;51.988;5.910;2022-11-27T14:40:24;8.50;99.90
47514;DHT22;33951;51.988;5.910;2022-11-27T14:50:36;8.30;99.90
47514;DHT22;33951;51.988;5.910;2022-11-27T14:54:16;8.30;99.90
47514;DHT22;33951;51.988;5.910;2022-11-27T15:04:23;8.00;99.90
47514;DHT22;33951;51.988;5.910;2022-11-27T15:19:59;8.10;99.90
47514;DHT22;33951;51.988;5.910;2022-11-27T15:26:48;8.00;99.90
47514;DHT22;33951;51.988;5.910;2022-11-27T16:17:13;8.10;99.90
47514;DHT22;33951;51.988;5.910;2022-11-27T16:24:16;8.10;99.90
47514;DHT22;33951;51.988;5.910;2022-11-27T18:33:38;7.60;99.90
47514;DHT22;33951;51.988;5.910;2022-11-27T18:36:15;7.70;99.90
47514;DHT22;33951;51.988;5.910;2022-11-27T18:38:49;7.80;99.90
47514;DHT22;33951;51.988;5.910;2022-11-27T18:41:26;7.80;99.90
47514;DHT22;33951;51.988;5.910;2022-11-27T18:43:57;7.80;99.90
47514;DHT22;33951;51.988;5.910;2022-11-27T18:46:23;7.80;99.90
47514;DHT22;33951;51.988;5.910;2022-11-27T18:48:51;7.80;99.90
47514;DHT22;33951;51.988;5.910;2022-11-27T18:51:23;7.70;99.90
47514;DHT22;33951;51.988;5.910;2022-11-27T18:54:19;7.70;99.90
47514;DHT22;33951;51.988;5.910;2022-11-27T18:57:09;7.70;99.90
47514;DHT22;33951;51.988;5.910;2022-11-27T19:04:20;7.80;99.90
47514;DHT22;33951;51.988;5.910;2022-11-27T19:14:22;7.70;99.90
47514;DHT22;33951;51.988;5.910;2022-11-27T19:17:32;7.70;99.90
47514;DHT22;33951;51.988;5.910;2022-11-27T19:23:48;8.10;99.90
47514;DHT22;33951;51.988;5.910;2022-11-27T19:26:59;8.10;99.90
47514;DHT22;33951;51.988;5.910;2022-11-27T19:29:52;8.00;99.90
47514;DHT22;33951;51.988;5.910;2022-11-27T19:33:05;8.00;99.90
47514;DHT22;33951;51.988;5.910;2022-11-27T19:42:44;8.00;99.90
47514;DHT22;33951;51.988;5.910;2022-11-27T19:45:40;8.10;99.90
47514;DHT22;33951;51.988;5.910;2022-11-27T19:49:09;8.10;99.90
47514;DHT22;33951;51.988;5.910;2022-11-27T19:55:46;8.10;99.90
47514;DHT22;33951;51.988;5.910;2022-11-27T20:01:33;8.00;99.90
47514;DHT22;33951;51.988;5.910;2022-11-27T20:04:25;7.90;99.90
47514;DHT22;33951;51.988;5.910;2022-11-27T20:10:22;7.90;99.90
47514;DHT22;33951;51.988;5.910;2022-11-27T20:13:37;8.00;99.90
47514;DHT22;33951;51.988;5.910;2022-11-27T20:16:35;8.10;99.90
47514;DHT22;33951;51.988;5.910;2022-11-27T20:22:55;8.10;99.90
47514;DHT22;33951;51.988;5.910;2022-11-27T20:25:24;8.10;99.90
47514;DHT22;33951;51.988;5.910;2022-11-27T20:27:52;8.00;99.90
47514;DHT22;33951;51.988;5.910;2022-11-27T20:30:18;7.90;99.90
47514;DHT22;33951;51.988;5.910;2022-11-27T20:32:47;8.10;99.90
47514;DHT22;33951;51.988;5.910;2022-11-27T20:35:18;8.10;99.90
47514;DHT22;33951;51.988;5.910;2022-11-27T20:37:46;8.10;99.90
47514;DHT22;33951;51.988;5.910;2022-11-27T20:40:21;8.10;99.90
47514;DHT22;33951;51.988;5.910;2022-11-27T20:42:54;8.00;99.90
47514;DHT22;33951;51.988;5.910;2022-11-27T20:45:22;7.90;99.90
47514;DHT22;33951;51.988;5.910;2022-11-27T20:47:51;7.90;99.90
47514;DHT22;33951;51.988;5.910;2022-11-27T20:50:25;8.00;99.90
47514;DHT22;33951;51.988;5.910;2022-11-27T20:52:52;7.90;99.90
47514;DHT22;33951;51.988;5.910;2022-11-27T20:55:22;7.90;99.90
47514;DHT22;33951;51.988;5.910;2022-11-27T20:57:59;7.70;99.90
47514;DHT22;33951;51.988;5.910;2022-11-27T21:00:27;7.70;99.90
47514;DHT22;33951;51.988;5.910;2022-11-27T21:03:01;7.90;99.90
47514;DHT22;33951;51.988;5.910;2022-11-27T21:05:38;7.80;99.90
47514;DHT22;33951;51.988;5.910;2022-11-27T21:08:10;7.90;99.90
47514;DHT22;33951;51.988;5.910;2022-11-27T21:10:37;7.90;99.90
47514;DHT22;33951;51.988;5.910;2022-11-27T21:13:05;7.90;99.90
47514;DHT22;33951;51.988;5.910;2022-11-27T21:15:33;7.90;99.90
47514;DHT22;33951;51.988;5.910;2022-11-27T21:17:59;7.90;99.90
47514;DHT22;33951;51.988;5.910;2022-11-27T21:20:27;7.90;99.90
47514;DHT22;33951;51.988;5.910;2022-11-27T21:22:53;7.80;99.90
47514;DHT22;33951;51.988;5.910;2022-11-27T21:25:21;7.70;99.90
47514;DHT22;33951;51.988;5.910;2022-11-27T21:27:47;7.60;99.90
47514;DHT22;33951;51.988;5.910;2022-11-27T21:30:13;7.70;99.90
47514;DHT22;33951;51.988;5.910;2022-11-27T21:32:39;7.70;99.90
47514;DHT22;33951;51.988;5.910;2022-11-27T21:35:04;7.70;99.90
47514;DHT22;33951;51.988;5.910;2022-11-27T21:37:30;7.70;99.90
47514;DHT22;33951;51.988;5.910;2022-11-27T21:39:56;7.60;99.90
47514;DHT22;33951;51.988;5.910;2022-11-27T21:42:21;7.70;99.90
47514;DHT22;33951;51.988;5.910;2022-11-27T21:44:48;7.90;99.90
47514;DHT22;33951;51.988;5.910;2022-11-27T21:47:16;7.90;99.90
47514;DHT22;33951;51.988;5.910;2022-11-27T21:49:41;7.90;99.90
47514;DHT22;33951;51.988;5.910;2022-11-27T21:52:07;8.00;99.90
47514;DHT22;33951;51.988;5.910;2022-11-27T21:54:33;7.90;99.90
47514;DHT22;33951;51.988;5.910;2022-11-27T21:56:59;7.90;99.90
47514;DHT22;33951;51.988;5.910;2022-11-27T21:59:25;7.80;99.90
47514;DHT22;33951;51.988;5.910;2022-11-27T22:01:51;7.90;99.90
47514;DHT22;33951;51.988;5.910;2022-11-27T22:04:16;7.80;99.90
47514;DHT22;33951;51.988;5.910;2022-11-27T22:06:42;7.80;99.90
47514;DHT22;33951;51.988;5.910;2022-11-27T22:09:09;7.90;99.90
47514;DHT22;33951;51.988;5.910;2022-11-27T22:11:35;7.80;99.90
47514;DHT22;33951;51.988;5.910;2022-11-27T22:14:04;7.80;99.90
47514;DHT22;33951;51.988;5.910;2022-11-27T22:16:33;7.70;99.90
47514;DHT22;33951;51.988;5.910;2022-11-27T22:19:00;7.80;99.90
47514;DHT22;33951;51.988;5.910;2022-11-27T22:21:27;7.80;99.90
47514;DHT22;33951;51.988;5.910;2022-11-27T22:23:53;7.90;99.90
47514;DHT22;33951;51.988;5.910;2022-11-27T22:26:21;7.80;99.90
47514;DHT22;33951;51.988;5.910;2022-11-27T22:28:47;7.80;99.90
47514;DHT22;33951;51.988;5.910;2022-11-27T22:31:33;7.80;99.90
47514;DHT22;33951;51.988;5.910;2022-11-27T22:33:59;7.70;99.90
47514;DHT22;33951;51.988;5.910;2022-11-27T22:38:55;7.60;99.90
47514;DHT22;33951;51.988;5.910;2022-11-27T22:41:23;7.60;99.90
47514;DHT22;33951;51.988;5.910;2022-11-27T22:43:49;7.70;99.90
47514;DHT22;33951;51.988;5.910;2022-11-27T22:46:23;7.80;99.90
47514;DHT22;33951;51.988;5.910;2022-11-27T22:48:56;7.80;99.90
47514;DHT22;33951;51.988;5.910;2022-11-27T22:51:26;7.80;99.90
47514;DHT22;33951;51.988;5.910;2022-11-27T22:53:52;7.70;99.90
47514;DHT22;33951;51.988;5.910;2022-11-27T22:56:18;7.70;99.90
47514;DHT22;33951;51.988;5.910;2022-11-27T22:58:46;7.70;99.90
47514;DHT22;33951;51.988;5.910;2022-11-27T23:01:21;7.70;99.90
47514;DHT22;33951;51.988;5.910;2022-11-27T23:03:47;7.70;99.90
47514;DHT22;33951;51.988;5.910;2022-11-27T23:06:14;7.70;99.90
47514;DHT22;33951;51.988;5.910;2022-11-27T23:08:42;7.80;99.90
47514;DHT22;33951;51.988;5.910;2022-11-27T23:11:10;7.80;99.90
47514;DHT22;33951;51.988;5.910;2022-11-27T23:13:37;7.90;99.90
47514;DHT22;33951;51.988;5.910;2022-11-27T23:16:04;7.80;99.90
47514;DHT22;33951;51.988;5.910;2022-11-27T23:18:31;7.80;99.90
47514;DHT22;33951;51.988;5.910;2022-11-27T23:20:56;7.80;99.90
47514;DHT22;33951;51.988;5.910;2022-11-27T23:23:29;7.70;99.90
47514;DHT22;33951;51.988;5.910;2022-11-27T23:25:54;7.70;99.90
47514;DHT22;33951;51.988;5.910;2022-11-27T23:28:20;7.70;99.90
47514;DHT22;33951;51.988;5.910;2022-11-27T23:30:46;7.70;99.90
47514;DHT22;33951;51.988;5.910;2022-11-27T23:33:11;7.70;99.90
47514;DHT22;33951;51.988;5.910;2022-11-27T23:35:37;7.60;99.90
47514;DHT22;33951;51.988;5.910;2022-11-27T23:38:02;7.70;99.90
47514;DHT22;33951;51.988;5.910;2022-11-27T23:40:28;7.80;99.90
47514;DHT22;33951;51.988;5.910;2022-11-27T23:42:53;7.90;99.90
47514;DHT22;33951;51.988;5.910;2022-11-27T23:45:19;8.00;99.90
47514;DHT22;33951;51.988;5.910;2022-11-27T23:47:45;8.00;99.90
47514;DHT22;33951;51.988;5.910;2022-11-27T23:50:11;8.00;99.90
47514;DHT22;33951;51.988;5.910;2022-11-27T23:52:37;8.10;99.90
47514;DHT22;33951;51.988;5.910;2022-11-27T23:55:03;8.10;99.90
47514;DHT22;33951;51.988;5.910;2022-11-27T23:57:28;8.10;99.90
47514;DHT22;33951;51.988;5.910;2022-11-27T23:59:54;8.10;99.90
